Time;durP1;ratioP1;P1;durP2;ratioP2;P2;SDS_P1;SDS_P2;PMS_P1;PMS_P2;Temp;Humidity;BMP_temperature;BMP_pressure;BME280_temperature;BME280_humidity;BME280_pressure;Samples;Min_cycle;Max_cycle;Signal;HPM_P1;HPM_P2
2022/05/13 00:02:24;;;;;;;1.73;1.30;;;11.30;91.10;;;;;;5022376;28;20514;-78
2022/05/13 00:04:50;;;;;;;1.65;1.15;;;11.30;91.10;;;;;;5034242;28;20049;-78
2022/05/13 00:07:16;;;;;;;2.03;1.35;;;11.20;91.20;;;;;;5033842;28;20033;-79
2022/05/13 00:09:57;;;;;;;1.77;1.25;;;11.20;91.60;;;;;;5033434;28;20583;-78
2022/05/13 00:12:24;;;;;;;1.95;1.10;;;11.20;91.50;;;;;;5033791;28;20057;-79
2022/05/13 00:14:51;;;;;;;2.97;1.50;;;11.20;91.40;;;;;;5033786;28;20036;-78
2022/05/13 00:17:18;;;;;;;3.05;1.48;;;11.30;91.80;;;;;;5033595;28;20041;-78
2022/05/13 00:19:43;;;;;;;1.25;1.00;;;11.30;91.70;;;;;;5033818;28;20038;-78
2022/05/13 00:22:12;;;;;;;3.15;1.20;;;11.30;91.50;;;;;;5033536;28;20099;-78
2022/05/13 00:24:37;;;;;;;2.42;1.27;;;11.30;91.70;;;;;;5015764;28;20021;-79
2022/05/13 00:27:03;;;;;;;6.88;1.48;;;11.40;91.60;;;;;;5028219;28;20052;-78
2022/05/13 00:29:29;;;;;;;4.43;2.05;;;11.40;91.60;;;;;;5020732;28;20101;-78
2022/05/13 00:31:55;;;;;;;3.75;2.25;;;11.50;91.70;;;;;;5033516;28;20104;-78
2022/05/13 00:34:21;;;;;;;2.85;2.03;;;11.50;91.60;;;;;;5033276;28;20092;-77
2022/05/13 00:36:47;;;;;;;2.90;2.17;;;11.60;91.70;;;;;;5032954;28;20107;-78
2022/05/13 00:39:13;;;;;;;2.63;1.73;;;11.50;91.70;;;;;;5015629;28;20032;-79
2022/05/13 00:41:39;;;;;;;4.75;2.28;;;11.60;91.80;;;;;;5033280;28;20090;-79
2022/05/13 00:44:05;;;;;;;3.00;2.42;;;11.60;91.70;;;;;;5034196;28;20029;-78
2022/05/13 00:46:31;;;;;;;2.92;2.25;;;11.60;91.60;;;;;;5037144;28;20033;-78
2022/05/13 00:49:01;;;;;;;2.72;1.90;;;11.50;91.40;;;;;;5022981;28;20458;-80
2022/05/13 00:51:31;;;;;;;2.78;2.00;;;11.50;91.60;;;;;;5038615;28;20029;-78
2022/05/13 00:53:57;;;;;;;5.57;2.00;;;11.60;91.60;;;;;;5015914;28;20025;-79
2022/05/13 00:56:24;;;;;;;2.95;1.85;;;11.60;91.40;;;;;;5015728;28;20144;-80
2022/05/13 00:58:56;;;;;;;3.47;1.90;;;11.60;91.40;;;;;;5033947;28;20021;-78
2022/05/13 01:01:22;;;;;;;2.13;1.67;;;11.60;91.50;;;;;;5033400;28;20029;-78
2022/05/13 01:03:50;;;;;;;1.45;1.23;;;11.50;91.20;;;;;;5033218;28;20508;-78
2022/05/13 01:06:19;;;;;;;2.15;1.08;;;11.50;91.30;;;;;;5033148;28;20033;-79
2022/05/13 01:08:47;;;;;;;3.83;1.55;;;11.50;91.10;;;;;;5025916;28;20022;-79
2022/05/13 01:11:16;;;;;;;2.60;1.58;;;11.50;91.10;;;;;;5013634;28;20475;-78
2022/05/13 01:13:49;;;;;;;1.55;1.30;;;11.50;90.80;;;;;;5012751;28;20109;-78
2022/05/13 01:16:15;;;;;;;2.65;1.50;;;11.40;90.80;;;;;;5012515;28;20476;-79
2022/05/13 01:18:45;;;;;;;5.65;1.55;;;11.40;91.10;;;;;;5012531;28;20029;-78
2022/05/13 01:21:18;;;;;;;1.92;1.30;;;11.50;91.10;;;;;;5012605;28;20022;-78
2022/05/13 01:23:45;;;;;;;2.05;1.27;;;11.50;91.10;;;;;;5012367;28;20555;-77
2022/05/13 01:26:14;;;;;;;6.47;1.45;;;11.60;91.10;;;;;;5013629;28;20471;-78
2022/05/13 01:28:41;;;;;;;2.13;1.55;;;11.50;90.80;;;;;;5014082;28;20037;-78
2022/05/13 01:31:11;;;;;;;2.10;1.35;;;11.50;90.50;;;;;;5012601;28;20018;-78
2022/05/13 01:33:38;;;;;;;2.22;1.40;;;11.50;90.30;;;;;;5012857;28;20034;-79
2022/05/13 01:36:05;;;;;;;4.38;1.50;;;11.50;90.20;;;;;;5013263;28;20085;-79
2022/05/13 01:38:34;;;;;;;2.72;1.45;;;11.40;90.30;;;;;;5012489;28;20106;-77
2022/05/13 01:41:01;;;;;;;3.03;1.20;;;11.40;90.30;;;;;;4977742;28;20033;-79
2022/05/13 01:43:27;;;;;;;1.48;1.20;;;11.40;90.10;;;;;;5012238;28;20030;-79
2022/05/13 01:45:54;;;;;;;1.57;1.20;;;11.40;90.10;;;;;;5012199;28;20030;-78
2022/05/13 01:48:20;;;;;;;2.53;1.33;;;11.40;89.70;;;;;;5012814;28;20372;-79
2022/05/13 01:50:46;;;;;;;2.20;1.17;;;11.40;89.40;;;;;;5013215;28;20491;-78
2022/05/13 01:53:12;;;;;;;2.45;1.23;;;11.50;89.30;;;;;;5019895;28;20026;-78
2022/05/13 01:55:42;;;;;;;2.60;1.40;;;11.50;89.30;;;;;;5021113;28;20025;-79
2022/05/13 01:58:10;;;;;;;2.25;1.15;;;11.50;89.30;;;;;;5019398;28;20022;-78
2022/05/13 02:00:36;;;;;;;4.20;1.52;;;11.50;88.80;;;;;;5033328;28;20086;-79
2022/05/13 02:05:45;;;;;;;5.38;1.63;;;11.50;88.50;;;;;;5032735;28;20040;-78
2022/05/13 02:08:11;;;;;;;3.25;1.80;;;11.50;88.60;;;;;;5014613;28;20038;-78
2022/05/13 02:10:37;;;;;;;1.70;1.45;;;11.50;88.60;;;;;;5014774;28;20061;-78
2022/05/13 02:13:03;;;;;;;5.07;1.38;;;11.50;88.50;;;;;;5014456;28;20405;-78
2022/05/13 02:15:29;;;;;;;2.05;1.20;;;11.40;88.80;;;;;;5032160;28;20036;-78
2022/05/13 02:17:54;;;;;;;4.15;1.73;;;11.40;88.80;;;;;;5032033;28;20026;-78
2022/05/13 02:20:20;;;;;;;3.20;1.55;;;11.30;88.80;;;;;;5031830;28;20028;-77
2022/05/13 02:22:46;;;;;;;2.95;1.13;;;11.30;88.90;;;;;;5030845;28;20029;-78
2022/05/13 02:25:12;;;;;;;4.80;1.33;;;11.30;88.50;;;;;;5032029;28;20025;-78
2022/05/13 02:27:37;;;;;;;3.20;1.38;;;11.30;88.70;;;;;;5029532;28;20046;-78
2022/05/13 02:30:05;;;;;;;4.95;1.67;;;11.20;89.10;;;;;;5019393;28;20475;-77
2022/05/13 02:32:31;;;;;;;;;;;11.20;89.10;;;;;;5029027;28;20017;-78
2022/05/13 02:34:56;;;;;;;4.07;1.60;;;11.30;89.20;;;;;;5036246;28;19905;-78
2022/05/13 02:37:22;;;;;;;1.75;1.55;;;11.30;89.10;;;;;;5035625;28;20035;-78
2022/05/13 02:39:48;;;;;;;4.25;1.67;;;11.40;88.70;;;;;;5035275;28;20091;-78
2022/05/13 02:42:14;;;;;;;3.33;1.83;;;11.40;88.60;;;;;;5035959;28;20018;-78
2022/05/13 02:44:40;;;;;;;3.58;1.52;;;11.40;88.30;;;;;;5035414;28;20041;-77
2022/05/13 02:47:06;;;;;;;2.53;1.50;;;11.30;88.30;;;;;;5042150;28;20037;-77
2022/05/13 02:49:32;;;;;;;3.80;1.60;;;11.30;88.60;;;;;;5056384;28;20021;-79
2022/05/13 02:51:58;;;;;;;5.65;1.50;;;11.30;88.90;;;;;;5050012;28;20048;-78
2022/05/13 02:54:24;;;;;;;4.35;1.80;;;11.30;88.40;;;;;;5035777;28;20026;-80
2022/05/13 02:56:49;;;;;;;3.20;1.60;;;11.40;88.20;;;;;;5035700;28;20033;-78
2022/05/13 02:59:15;;;;;;;4.65;1.60;;;11.40;87.90;;;;;;5035397;28;20033;-80
2022/05/13 03:01:41;;;;;;;4.45;1.92;;;11.40;88.00;;;;;;5036290;28;20431;-79
2022/05/13 03:04:07;;;;;;;5.25;1.95;;;11.40;87.40;;;;;;5035119;28;20026;-79
2022/05/13 03:06:32;;;;;;;2.45;1.60;;;11.30;87.40;;;;;;5034999;28;20042;-78
2022/05/13 03:08:58;;;;;;;4.55;1.65;;;11.30;87.50;;;;;;5034866;28;20029;-79
2022/05/13 03:11:24;;;;;;;4.20;1.52;;;11.30;87.10;;;;;;5034771;28;20056;-78
2022/05/13 03:13:51;;;;;;;8.30;1.73;;;11.40;87.10;;;;;;5034726;28;20126;-79
2022/05/13 03:16:21;;;;;;;4.18;1.45;;;11.50;87.20;;;;;;5034596;28;20112;-79
2022/05/13 03:18:52;;;;;;;2.33;1.25;;;11.50;86.90;;;;;;5034725;28;20029;-79
2022/05/13 03:21:19;;;;;;;5.15;1.75;;;11.60;86.70;;;;;;5034789;28;20025;-77
2022/05/13 03:23:45;;;;;;;3.00;1.92;;;11.60;86.50;;;;;;5034433;28;20104;-79
2022/05/13 03:26:12;;;;;;;5.20;1.55;;;11.70;86.10;;;;;;5034418;28;20128;-80
2022/05/13 03:28:38;;;;;;;1.85;1.35;;;11.70;85.50;;;;;;5034477;28;20021;-78
2022/05/13 03:31:04;;;;;;;1.88;1.30;;;11.70;85.30;;;;;;5034499;28;20053;-80
2022/05/13 03:33:30;;;;;;;4.85;1.98;;;11.60;85.20;;;;;;5019922;28;20105;-80
2022/05/13 03:35:56;;;;;;;4.70;1.80;;;11.60;85.00;;;;;;5014419;28;20085;-78
2022/05/13 03:38:22;;;;;;;2.33;1.38;;;11.70;85.50;;;;;;5014417;28;20349;-80
2022/05/13 03:40:48;;;;;;;3.95;1.70;;;11.70;85.30;;;;;;5014648;28;20050;-79
2022/05/13 03:43:15;;;;;;;2.72;1.40;;;11.80;84.20;;;;;;5013953;28;20380;-77
2022/05/13 03:45:42;;;;;;;2.70;1.55;;;11.80;84.10;;;;;;5014425;28;20018;-79
2022/05/13 03:48:08;;;;;;;4.95;1.92;;;11.80;84.20;;;;;;5014369;28;20523;-79
2022/05/13 03:50:38;;;;;;;2.72;1.55;;;11.80;84.70;;;;;;5014314;28;20033;-80
2022/05/13 03:53:04;;;;;;;2.92;1.63;;;11.90;84.70;;;;;;5012909;28;20036;-80
2022/05/13 03:55:31;;;;;;;2.17;1.35;;;11.90;84.20;;;;;;5014207;28;20030;-79
2022/05/13 03:57:57;;;;;;;5.03;1.40;;;12.00;83.60;;;;;;5028424;28;20037;-79
2022/05/13 04:00:23;;;;;;;3.58;1.98;;;11.90;83.60;;;;;;5034032;28;20022;-79
2022/05/13 04:02:49;;;;;;;4.13;1.50;;;11.80;83.90;;;;;;5034369;28;20207;-79
2022/05/13 04:10:44;;;;;;;4.13;2.15;;;12.00;83.40;;;;;;5033841;28;20116;-80
2022/05/13 04:16:06;;;;;;;3.17;1.40;;;12.00;82.90;;;;;;5033711;28;20505;-80
2022/05/13 04:18:43;;;;;;;2.92;1.73;;;12.00;83.00;;;;;;5033522;28;20483;-80
2022/05/13 04:21:18;;;;;;;6.35;2.65;;;12.00;82.90;;;;;;5033677;28;20033;-78
2022/05/13 04:23:46;;;;;;;4.38;1.85;;;12.00;82.50;;;;;;5033322;28;20113;-81
2022/05/13 04:26:13;;;;;;;4.78;1.75;;;12.20;82.80;;;;;;5033567;28;20471;-79
2022/05/13 04:28:44;;;;;;;3.67;1.77;;;12.40;82.50;;;;;;5033080;28;20026;-79
2022/05/13 04:31:11;;;;;;;3.67;1.33;;;12.50;80.60;;;;;;5033070;28;20022;-79
2022/05/13 04:33:38;;;;;;;8.77;1.77;;;12.50;80.90;;;;;;5032900;28;20368;-79
2022/05/13 04:36:05;;;;;;;3.67;1.85;;;12.60;80.80;;;;;;5033075;28;20566;-80
2022/05/13 04:38:32;;;;;;;4.77;1.73;;;12.60;79.20;;;;;;5033338;28;20033;-80
2022/05/13 04:42:49;;;;;;;3.57;1.40;;;12.60;79.70;;;;;;5033605;28;20025;-80
2022/05/13 04:43:56;;;;;;;5.65;1.80;;;12.70;78.90;;;;;;5033017;28;20108;-82
2022/05/13 04:46:23;;;;;;;2.88;1.60;;;12.70;78.30;;;;;;5013166;28;20088;-80
2022/05/13 04:48:50;;;;;;;1.92;1.30;;;12.70;77.60;;;;;;5015449;28;20029;-78
2022/05/13 04:51:19;;;;;;;4.20;1.95;;;12.70;78.10;;;;;;5011216;28;20415;-80
2022/05/13 04:53:49;;;;;;;4.82;1.75;;;13.00;77.90;;;;;;5022597;28;20426;-81
2022/05/13 04:56:14;;;;;;;2.55;1.63;;;13.40;76.80;;;;;;5005586;28;20446;-81
2022/05/13 04:58:42;;;;;;;6.38;1.80;;;13.50;75.20;;;;;;5032846;28;20032;-80
2022/05/13 05:01:09;;;;;;;6.28;1.70;;;13.60;75.60;;;;;;5033310;28;20029;-79
2022/05/13 05:03:36;;;;;;;2.55;1.52;;;13.50;75.10;;;;;;5032534;28;20486;-80
2022/05/13 05:06:03;;;;;;;2.75;1.35;;;14.10;74.70;;;;;;5032876;28;20065;-78
2022/05/13 05:08:30;;;;;;;3.30;1.55;;;14.30;72.20;;;;;;5032735;28;20100;-80
2022/05/13 05:10:57;;;;;;;3.40;1.77;;;14.10;72.50;;;;;;5032598;28;20091;-79
2022/05/13 05:13:31;;;;;;;2.15;1.38;;;14.20;73.10;;;;;;5034037;28;20030;-79
2022/05/13 05:15:57;;;;;;;4.50;1.58;;;14.20;72.30;;;;;;5035137;28;20442;-81
2022/05/13 05:18:23;;;;;;;2.35;1.48;;;13.90;72.60;;;;;;5033446;28;20036;-78
2022/05/13 05:20:50;;;;;;;2.90;1.42;;;13.70;73.00;;;;;;5015478;28;20061;-81
2022/05/13 05:23:19;;;;;;;3.50;1.63;;;13.70;74.20;;;;;;5013294;28;20022;-81
2022/05/13 05:25:45;;;;;;;2.92;1.20;;;14.20;72.90;;;;;;5027841;28;20084;-80
2022/05/13 05:28:12;;;;;;;2.95;1.50;;;15.30;69.70;;;;;;5032240;28;20041;-79
2022/05/13 05:30:39;;;;;;;5.93;1.80;;;16.00;66.60;;;;;;5032663;28;20032;-80
2022/05/13 05:33:05;;;;;;;4.05;1.63;;;17.00;65.30;;;;;;5021254;28;20025;-83
2022/05/13 05:35:31;;;;;;;3.20;1.65;;;17.60;62.90;;;;;;5013029;28;20116;-82
2022/05/13 05:37:57;;;;;;;4.70;1.50;;;17.60;61.40;;;;;;5013325;28;20026;-80
2022/05/13 05:40:23;;;;;;;4.28;1.80;;;17.10;61.90;;;;;;5012922;28;20095;-80
2022/05/13 05:42:49;;;;;;;3.22;1.80;;;16.50;63.20;;;;;;5015830;28;20160;-81
2022/05/13 05:45:16;;;;;;;4.43;1.70;;;15.90;64.40;;;;;;5019193;28;20022;-81
2022/05/13 05:47:42;;;;;;;;;;;15.40;67.10;;;;;;5016904;28;20491;-80
2022/05/13 05:50:13;;;;;;;5.43;1.95;;;15.00;67.50;;;;;;5013876;28;19912;-81
2022/05/13 05:52:39;;;;;;;7.28;1.60;;;14.60;68.80;;;;;;5012856;28;20092;-81
2022/05/13 05:58:13;;;;;;;5.50;1.92;;;15.90;66.80;;;;;;4932600;29;20127;-81
2022/05/13 06:00:42;;;;;;;3.47;1.77;;;16.30;62.90;;;;;;5015339;28;20057;-82
2022/05/13 06:03:09;;;;;;;4.40;1.77;;;17.20;63.40;;;;;;5032553;28;20037;-80
2022/05/13 06:05:35;;;;;;;2.55;1.35;;;19.50;59.60;;;;;;5033748;28;20509;-81
2022/05/13 06:08:02;;;;;;;4.80;1.60;;;21.20;53.50;;;;;;5036364;28;20411;-79
2022/05/13 06:10:28;;;;;;;;;;;21.70;50.40;;;;;;5037530;28;20025;-80
2022/05/13 06:12:54;;;;;;;5.60;1.50;;;21.40;52.50;;;;;;5036299;28;19932;-80
2022/05/13 06:15:21;;;;;;;5.22;1.48;;;20.70;50.00;;;;;;5021047;28;20475;-79
2022/05/13 06:17:52;;;;;;;5.53;1.70;;;19.60;52.00;;;;;;5018713;28;20022;-81
2022/05/13 06:20:21;;;;;;;4.25;1.58;;;19.70;52.80;;;;;;5017094;28;20045;-79
2022/05/13 06:22:47;;;;;;;5.63;1.60;;;19.20;53.70;;;;;;5020579;28;20041;-80
2022/05/13 06:25:15;;;;;;;2.47;1.25;;;18.40;54.70;;;;;;5034545;28;20109;-81
2022/05/13 06:27:41;;;;;;;4.82;2.00;;;17.80;56.00;;;;;;5024381;28;20029;-80
2022/05/13 06:30:15;;;;;;;6.28;1.75;;;17.10;58.00;;;;;;5030415;28;20053;-84
2022/05/13 06:32:41;;;;;;;4.03;1.77;;;16.50;59.20;;;;;;5036259;28;20116;-86
2022/05/13 06:35:08;;;;;;;1.85;1.10;;;16.10;60.90;;;;;;5037819;28;20509;-84
2022/05/13 06:37:34;;;;;;;7.57;2.27;;;15.70;61.60;;;;;;5018999;28;20117;-86
2022/05/13 06:40:00;;;;;;;4.93;1.50;;;15.30;63.40;;;;;;5036936;28;20294;-84
2022/05/13 06:42:25;;;;;;;7.85;3.75;;;15.10;64.00;;;;;;5038958;28;20448;-82
2022/05/13 06:44:51;;;;;;;5.72;2.63;;;14.90;64.60;;;;;;5055821;28;20024;-85
2022/05/13 06:47:17;;;;;;;6.55;1.70;;;14.60;65.90;;;;;;5055766;28;20116;-84
2022/05/13 06:49:43;;;;;;;3.53;1.55;;;14.50;66.70;;;;;;5039122;28;20067;-83
2022/05/13 06:52:13;;;;;;;5.32;2.15;;;14.50;67.10;;;;;;5041368;28;20086;-85
2022/05/13 06:54:40;;;;;;;3.67;1.38;;;14.50;67.60;;;;;;5052409;28;20021;-84
2022/05/13 06:57:07;;;;;;;5.65;1.88;;;14.40;67.90;;;;;;5050478;28;20048;-82
2022/05/13 06:59:33;;;;;;;4.45;1.77;;;14.40;67.80;;;;;;5020538;28;20081;-83
2022/05/13 07:01:58;;;;;;;5.22;1.30;;;14.70;67.90;;;;;;5036994;28;20029;-83
2022/05/13 07:04:24;;;;;;;4.22;1.52;;;15.00;66.30;;;;;;5035728;28;20087;-83
2022/05/13 07:06:51;;;;;;;3.80;1.83;;;15.40;65.90;;;;;;5035280;28;20030;-83
2022/05/13 07:09:16;;;;;;;3.88;1.55;;;15.80;64.90;;;;;;5033837;28;20475;-87
2022/05/13 07:11:44;;;;;;;6.20;1.55;;;15.90;63.30;;;;;;5035282;28;20033;-85
2022/05/13 07:14:11;;;;;;;3.50;1.77;;;16.70;62.60;;;;;;5036057;28;20058;-85
2022/05/13 07:16:37;;;;;;;1.60;1.20;;;18.00;60.30;;;;;;5055119;28;20064;-83
2022/05/13 07:19:03;;;;;;;6.22;1.90;;;20.50;55.60;;;;;;5056763;28;20254;-82
2022/05/13 07:21:28;;;;;;;5.53;2.05;;;22.60;49.00;;;;;;5062637;28;20041;-84
2022/05/13 07:23:54;;;;;;;6.78;1.73;;;22.80;47.40;;;;;;5059757;28;20029;-84
2022/05/13 07:26:20;;;;;;;4.45;1.23;;;21.80;47.90;;;;;;5042084;28;20038;-84
2022/05/13 07:28:46;;;;;;;3.83;1.35;;;22.00;47.50;;;;;;5041233;28;20022;-85
2022/05/13 07:31:11;;;;;;;3.85;1.88;;;21.90;48.00;;;;;;5041664;28;20120;-84
2022/05/13 07:33:37;;;;;;;5.50;1.25;;;22.00;47.10;;;;;;5035779;28;20029;-84
2022/05/13 07:36:04;;;;;;;1.45;0.98;;;21.20;46.90;;;;;;5037132;28;20210;-84
2022/05/13 07:38:31;;;;;;;2.15;0.90;;;20.20;49.20;;;;;;5037118;28;20120;-83
2022/05/13 07:41:16;;;;;;;3.55;1.25;;;20.90;49.10;;;;;;5036896;28;20475;-85
2022/05/13 07:43:46;;;;;;;4.68;1.40;;;21.10;47.10;;;;;;5040496;28;20025;-83
2022/05/13 07:46:13;;;;;;;4.03;1.10;;;22.10;47.30;;;;;;5036247;28;20129;-85
2022/05/13 07:48:40;;;;;;;2.70;1.63;;;23.60;43.30;;;;;;5044168;28;20124;-82
2022/05/13 07:51:07;;;;;;;5.70;0.77;;;23.00;42.90;;;;;;5058267;28;20537;-82
2022/05/13 07:53:34;;;;;;;5.32;2.17;;;21.80;43.80;;;;;;5018185;28;20030;-83
2022/05/13 07:55:59;;;;;;;6.03;2.60;;;20.80;45.80;;;;;;5016826;28;20030;-84
2022/05/13 07:58:25;;;;;;;5.43;3.28;;;20.40;47.00;;;;;;5015310;28;20053;-84
2022/05/13 08:00:51;;;;;;;3.88;2.10;;;19.90;47.60;;;;;;5014487;28;20061;-83
2022/05/13 08:03:18;;;;;;;3.90;1.67;;;19.20;49.20;;;;;;4996966;28;20056;-84
2022/05/13 08:05:50;;;;;;;3.57;1.40;;;18.90;50.00;;;;;;5028039;28;20156;-84
2022/05/13 08:08:32;;;;;;;5.55;1.60;;;18.50;50.80;;;;;;5034198;28;20297;-83
2022/05/13 08:11:01;;;;;;;4.07;1.27;;;19.20;50.90;;;;;;5034605;28;20083;-85
2022/05/13 08:13:33;;;;;;;4.75;2.35;;;21.50;47.20;;;;;;5034401;28;20025;-83
2022/05/13 08:16:11;;;;;;;3.17;1.30;;;24.10;43.30;;;;;;5033933;28;20013;-84
2022/05/13 08:18:37;;;;;;;3.53;1.83;;;25.80;39.50;;;;;;5033855;28;20109;-83
2022/05/13 08:21:03;;;;;;;2.72;1.55;;;25.10;39.20;;;;;;5033897;28;20022;-83
2022/05/13 08:23:29;;;;;;;4.20;1.90;;;24.30;40.30;;;;;;5027148;28;20558;-83
2022/05/13 08:25:55;;;;;;;3.20;1.92;;;25.10;40.90;;;;;;5019408;28;20112;-84
2022/05/13 08:28:24;;;;;;;6.15;1.88;;;27.50;37.60;;;;;;5015905;28;20120;-85
2022/05/13 08:30:49;;;;;;;2.67;1.00;;;29.30;35.80;;;;;;5033398;28;20368;-85
2022/05/13 08:33:16;;;;;;;3.22;1.75;;;29.90;33.00;;;;;;5033829;28;20033;-84
2022/05/13 08:35:46;;;;;;;6.23;1.70;;;28.30;32.70;;;;;;4999473;28;20090;-84
2022/05/13 08:38:13;;;;;;;7.80;2.45;;;27.50;33.60;;;;;;5033793;28;20025;-84
2022/05/13 08:40:43;;;;;;;2.65;1.00;;;27.20;34.60;;;;;;5034101;28;20033;-82
2022/05/13 08:43:12;;;;;;;8.88;2.03;;;26.80;34.00;;;;;;5034690;28;20483;-84
2022/05/13 08:45:56;;;;;;;2.83;1.38;;;25.10;35.70;;;;;;5036411;28;20034;-83
2022/05/13 08:48:51;;;;;;;4.63;1.70;;;24.50;37.40;;;;;;5033904;28;20410;-85
2022/05/13 08:51:44;;;;;;;5.18;1.98;;;23.50;37.40;;;;;;5033378;28;20024;-85
2022/05/13 08:54:15;;;;;;;4.05;1.17;;;23.20;38.80;;;;;;5015677;28;20034;-85
2022/05/13 08:56:50;;;;;;;3.70;1.17;;;23.00;38.30;;;;;;5034750;28;20494;-85
2022/05/13 08:59:28;;;;;;;4.43;1.02;;;22.20;38.70;;;;;;5036709;28;20490;-83
2022/05/13 09:02:11;;;;;;;4.32;1.80;;;21.00;40.90;;;;;;5032134;28;20029;-82
2022/05/13 09:05:24;;;;;;;5.22;0.98;;;20.00;43.40;;;;;;5038496;28;20025;-84
2022/05/13 09:07:51;;;;;;;5.18;1.70;;;19.20;44.40;;;;;;5027839;28;20046;-85
2022/05/13 09:10:18;;;;;;;2.42;1.33;;;18.60;46.90;;;;;;5032499;28;20047;-85
2022/05/13 09:13:00;;;;;;;2.85;1.25;;;19.70;45.40;;;;;;5035167;28;20053;-84
2022/05/13 09:15:39;;;;;;;3.53;1.10;;;20.60;43.10;;;;;;5033313;28;20387;-85
2022/05/13 09:18:26;;;;;;;1.35;0.82;;;20.60;42.20;;;;;;5032863;28;20096;-85
2022/05/13 09:20:56;;;;;;;4.65;1.73;;;20.00;42.90;;;;;;5022459;28;20034;-85
2022/05/13 09:23:23;;;;;;;9.00;3.35;;;19.90;43.90;;;;;;5034871;28;20032;-86
2022/05/13 09:25:58;;;;;;;4.55;2.50;;;20.90;43.30;;;;;;5033391;28;20034;-85
2022/05/13 09:28:26;;;;;;;6.28;1.42;;;21.10;41.70;;;;;;4998707;28;20048;-86
2022/05/13 09:30:55;;;;;;;3.95;1.50;;;21.00;42.50;;;;;;4996720;28;20018;-87
2022/05/13 09:33:40;;;;;;;5.68;2.72;;;22.20;41.40;;;;;;5014517;28;20077;-84
2022/05/13 09:36:26;;;;;;;2.97;0.98;;;24.00;38.70;;;;;;5021725;28;20084;-87
2022/05/13 09:38:58;;;;;;;6.60;1.35;;;26.20;36.30;;;;;;5033806;28;20018;-83
2022/05/13 09:41:42;;;;;;;1.95;0.95;;;26.50;34.20;;;;;;5032289;28;20033;-85
2022/05/13 09:44:25;;;;;;;3.65;1.05;;;24.30;35.40;;;;;;5035303;28;20053;-86
2022/05/13 09:47:14;;;;;;;3.42;1.33;;;22.10;38.30;;;;;;5058903;28;20032;-85
2022/05/13 09:49:43;;;;;;;4.65;1.80;;;21.00;40.40;;;;;;5049134;28;20025;-83
2022/05/13 09:52:38;;;;;;;2.70;1.27;;;20.50;41.30;;;;;;5040202;28;20037;-86
2022/05/13 09:55:23;;;;;;;4.65;1.27;;;20.10;41.80;;;;;;5025021;28;20058;-85
2022/05/13 09:57:53;;;;;;;2.50;1.63;;;19.30;42.70;;;;;;5034806;28;20402;-86
2022/05/13 10:00:27;;;;;;;6.50;1.40;;;19.00;43.80;;;;;;5034139;28;20193;-83
2022/05/13 10:03:08;;;;;;;6.57;2.20;;;18.70;44.50;;;;;;5027116;28;20033;-88
2022/05/13 10:05:34;;;;;;;4.47;1.80;;;18.50;45.00;;;;;;5053595;28;20045;-88
2022/05/13 10:08:05;;;;;;;4.47;1.27;;;18.20;45.70;;;;;;5053911;28;20099;-85
2022/05/13 10:16:43;;;;;;;2.17;0.98;;;17.90;46.30;;;;;;4980694;28;20179;-85
2022/05/13 10:19:37;;;;;;;2.28;1.25;;;18.00;46.20;;;;;;4957234;28;20100;-85
2022/05/13 10:22:37;;;;;;;4.90;1.42;;;18.00;46.30;;;;;;4972872;28;20924;-84
2022/05/13 10:25:10;;;;;;;2.53;1.30;;;18.00;45.90;;;;;;4962993;28;20035;-85
2022/05/13 10:27:52;;;;;;;3.88;1.33;;;17.70;45.90;;;;;;4952900;29;20035;-84
2022/05/13 10:30:45;;;;;;;1.60;0.90;;;17.60;46.80;;;;;;4936759;29;20055;-84
2022/05/13 10:33:16;;;;;;;4.35;1.10;;;17.70;46.80;;;;;;4936730;29;20039;-85
2022/05/13 10:35:56;;;;;;;2.83;1.00;;;18.00;46.80;;;;;;4961951;28;20070;-87
2022/05/13 10:38:30;;;;;;;3.45;1.95;;;18.00;46.00;;;;;;4964638;28;20031;-84
2022/05/13 10:41:17;;;;;;;3.55;1.30;;;18.00;46.80;;;;;;4952559;29;20035;-85
2022/05/13 10:43:51;;;;;;;4.10;2.10;;;17.80;46.50;;;;;;4952345;28;20036;-85
2022/05/13 10:46:26;;;;;;;3.88;1.67;;;17.70;47.50;;;;;;4952556;29;20039;-85
2022/05/13 10:48:54;;;;;;;5.38;1.20;;;17.90;48.10;;;;;;4953295;29;20158;-84
2022/05/13 10:51:31;;;;;;;2.80;1.00;;;18.10;47.00;;;;;;5017879;28;20037;-85
2022/05/13 10:54:06;;;;;;;4.03;1.20;;;18.20;46.70;;;;;;5035518;28;20045;-86
2022/05/13 10:56:45;;;;;;;3.17;1.27;;;18.30;46.80;;;;;;5026338;28;20021;-84
2022/05/13 10:59:29;;;;;;;4.18;1.40;;;18.30;46.70;;;;;;5055293;28;20056;-86
2022/05/13 11:02:04;;;;;;;3.17;1.08;;;18.50;46.60;;;;;;5037907;28;20544;-86
2022/05/13 11:05:02;;;;;;;5.13;1.52;;;18.70;45.50;;;;;;5056430;28;20052;-84
2022/05/13 11:07:54;;;;;;;3.22;1.35;;;18.60;45.60;;;;;;5053806;28;20049;-85
2022/05/13 11:10:42;;;;;;;8.77;2.17;;;18.60;45.30;;;;;;5050044;28;20021;-83
2022/05/13 11:13:33;;;;;;;1.70;1.17;;;18.40;46.00;;;;;;5054805;28;20021;-87
2022/05/13 11:16:10;;;;;;;2.92;1.20;;;18.20;46.30;;;;;;5017938;28;20067;-83
2022/05/13 11:18:42;;;;;;;8.20;1.50;;;18.10;46.70;;;;;;5036275;28;20483;-84
2022/05/13 11:21:35;;;;;;;5.78;1.55;;;18.00;46.70;;;;;;5035670;28;20037;-83
2022/05/13 11:27:29;;;;;;;3.78;1.10;;;17.70;45.30;;;;;;5035094;28;20049;-84
2022/05/13 11:30:08;;;;;;;4.90;1.83;;;17.70;45.50;;;;;;5034074;28;20018;-87
2022/05/13 11:33:02;;;;;;;2.47;1.30;;;17.90;45.70;;;;;;5035699;28;20029;-86
2022/05/13 11:35:58;;;;;;;3.10;1.13;;;18.00;45.60;;;;;;5037463;28;20095;-85
2022/05/13 11:38:55;;;;;;;2.50;1.00;;;18.00;45.50;;;;;;5017370;28;20432;-86
2022/05/13 11:41:23;;;;;;;3.78;0.70;;;17.70;44.50;;;;;;5034700;28;20478;-84
2022/05/13 11:43:52;;;;;;;1.85;0.80;;;17.60;45.30;;;;;;5035416;28;20041;-84
2022/05/13 11:46:48;;;;;;;7.75;1.02;;;17.50;44.50;;;;;;5034112;28;20028;-83
2022/05/13 11:49:34;;;;;;;1.98;0.65;;;17.60;44.10;;;;;;5037467;28;20025;-85
2022/05/13 11:52:11;;;;;;;2.58;0.85;;;17.50;44.40;;;;;;5047689;28;20042;-83
2022/05/13 11:54:41;;;;;;;6.47;1.75;;;17.60;44.80;;;;;;5034871;28;20054;-82
2022/05/13 11:57:16;;;;;;;6.45;1.08;;;17.60;45.00;;;;;;5042947;28;20148;-87
2022/05/13 11:59:51;;;;;;;1.45;0.63;;;17.70;45.10;;;;;;5023314;28;20386;-84
2022/05/13 12:02:50;;;;;;;5.57;1.60;;;17.90;45.00;;;;;;5020639;28;20480;-83
2022/05/13 12:05:19;;;;;;;4.63;1.05;;;17.90;45.20;;;;;;5048046;28;20424;-85
2022/05/13 12:08:04;;;;;;;3.83;0.82;;;17.90;45.40;;;;;;5056151;28;20040;-84
2022/05/13 12:10:48;;;;;;;4.80;1.13;;;17.80;47.10;;;;;;5055162;28;20029;-85
2022/05/13 12:13:51;;;;;;;5.78;1.13;;;17.20;51.00;;;;;;5055036;28;20029;-84
2022/05/13 12:16:39;;;;;;;5.22;2.33;;;16.60;54.50;;;;;;5054720;28;20027;-85
2022/05/13 12:19:26;;;;;;;1.55;0.90;;;16.50;54.10;;;;;;5036945;28;20021;-85
2022/05/13 12:22:19;;;;;;;5.20;1.50;;;16.50;51.90;;;;;;5014884;28;20085;-84
2022/05/13 12:25:05;;;;;;;3.35;1.42;;;16.60;49.10;;;;;;5021678;28;20028;-85
2022/05/13 12:27:36;;;;;;;11.23;2.00;;;16.60;49.00;;;;;;5017238;28;20033;-86
2022/05/13 12:30:31;;;;;;;2.38;0.85;;;16.60;49.30;;;;;;5036692;28;20112;-85
2022/05/13 12:33:26;;;;;;;8.20;1.40;;;16.70;47.00;;;;;;5034479;28;20075;-85
2022/05/13 12:39:41;;;;;;;7.87;1.60;;;16.90;46.50;;;;;;5014828;28;20514;-84
2022/05/13 12:42:09;;;;;;;6.65;1.17;;;17.00;45.90;;;;;;5015725;28;20495;-84
2022/05/13 12:45:07;;;;;;;4.65;1.23;;;17.10;46.20;;;;;;5016383;28;20045;-85
2022/05/13 12:48:04;;;;;;;1.73;0.73;;;17.30;46.00;;;;;;5018507;28;20099;-83
2022/05/13 12:50:50;;;;;;;6.50;1.42;;;17.50;45.40;;;;;;5020909;28;20117;-85
2022/05/13 12:53:28;;;;;;;3.22;0.95;;;17.70;45.30;;;;;;5028099;28;20548;-84
2022/05/13 12:56:08;;;;;;;2.50;0.85;;;17.90;45.00;;;;;;5053389;28;20040;-84
2022/05/13 12:58:37;;;;;;;2.17;1.25;;;18.00;44.40;;;;;;5053184;28;20029;-84
2022/05/13 13:01:04;;;;;;;5.00;1.20;;;18.00;44.60;;;;;;5053966;28;20048;-86
2022/05/13 13:03:38;;;;;;;6.95;1.90;;;17.90;44.10;;;;;;5053985;28;20021;-85
2022/05/13 13:06:12;;;;;;;4.50;1.27;;;17.90;43.90;;;;;;5045591;28;20076;-84
2022/05/13 13:08:41;;;;;;;4.55;1.02;;;18.10;44.00;;;;;;5039018;28;20034;-84
2022/05/13 13:11:22;;;;;;;3.10;0.98;;;18.20;44.40;;;;;;5035875;28;20112;-85
2022/05/13 13:14:34;;;;;;;3.33;1.30;;;18.20;46.60;;;;;;5033851;28;20091;-83
2022/05/13 13:17:19;;;;;;;6.88;1.75;;;18.20;49.10;;;;;;4974948;28;20077;-85
2022/05/13 13:19:48;;;;;;;8.18;1.33;;;18.20;51.10;;;;;;4984675;28;20101;-84
2022/05/13 13:22:20;;;;;;;7.20;1.52;;;18.00;52.30;;;;;;4989411;28;20042;-85
2022/05/13 13:24:47;;;;;;;4.75;1.77;;;17.80;53.30;;;;;;4972126;28;20046;-84
2022/05/13 13:27:19;;;;;;;4.88;1.80;;;17.70;54.00;;;;;;4973313;28;20054;-85
2022/05/13 13:29:47;;;;;;;7.55;1.73;;;17.70;54.40;;;;;;4983967;28;20026;-86
2022/05/13 13:32:22;;;;;;;2.15;1.10;;;17.70;54.50;;;;;;4980496;28;20033;-83
2022/05/13 13:34:50;;;;;;;2.38;1.20;;;17.70;53.70;;;;;;4958740;28;20027;-85
2022/05/13 13:37:19;;;;;;;1.67;1.02;;;17.60;53.10;;;;;;4972399;28;20042;-86
2022/05/13 13:39:45;;;;;;;5.38;1.83;;;17.40;53.40;;;;;;4972142;28;20034;-85